createdAt,value
2018-06-23T00:01:50.016Z,70.20
2018-06-23T00:04:24.988Z,70.10
2018-06-23T00:06:59.782Z,70.20
2018-06-23T00:09:34.336Z,70.60
2018-06-23T00:12:09.258Z,71.40
2018-06-23T00:14:43.928Z,70.80
2018-06-23T00:17:18.476Z,70.70
2018-06-23T00:19:53.323Z,70.80
2018-06-23T00:22:28.291Z,70.60
2018-06-23T00:25:02.676Z,70.70
2018-06-23T00:27:37.435Z,70.80
2018-06-23T00:30:12.502Z,70.90
2018-06-23T00:32:47.409Z,70.80
2018-06-23T00:35:22.299Z,70.40
2018-06-23T00:37:57.051Z,70.50
2018-06-23T00:40:31.386Z,70.20
2018-06-23T00:43:06.118Z,70.00
2018-06-23T00:45:40.679Z,70.00
2018-06-23T00:48:15.425Z,69.80
2018-06-23T00:50:50.293Z,69.50
2018-06-23T00:53:24.928Z,69.80
2018-06-23T00:55:59.946Z,69.80
2018-06-23T00:58:51.397Z,70.20
2018-06-23T01:01:26.069Z,70.00
2018-06-23T01:04:00.657Z,69.70
2018-06-23T01:06:35.697Z,69.10
2018-06-23T01:09:10.666Z,69.20
2018-06-23T01:11:44.927Z,69.00
2018-06-23T01:14:19.781Z,69.00
2018-06-23T01:16:54.159Z,68.60
2018-06-23T01:19:28.825Z,68.70
2018-06-23T01:22:03.849Z,68.70
2018-06-23T01:24:38.189Z,68.40
2018-06-23T01:27:12.835Z,68.60
2018-06-23T01:29:47.456Z,68.40
2018-06-23T01:32:21.975Z,68.40
2018-06-23T01:34:56.837Z,68.50
2018-06-23T01:37:31.716Z,68.60
2018-06-23T01:40:06.596Z,68.60
2018-06-23T01:42:41.673Z,68.50
2018-06-23T01:45:16.359Z,68.50
2018-06-23T01:47:51.180Z,68.40
2018-06-23T01:50:25.814Z,68.70
2018-06-23T01:53:00.506Z,68.60
2018-06-23T01:55:35.066Z,68.80
2018-06-23T01:58:10.109Z,69.00
2018-06-23T02:00:44.527Z,69.20
2018-06-23T02:03:19.248Z,69.40
2018-06-23T02:05:53.796Z,69.60
2018-06-23T02:08:28.472Z,69.80
2018-06-23T02:11:03.181Z,70.10
2018-06-23T02:13:37.928Z,70.30
2018-06-23T02:16:18.199Z,70.30
2018-06-23T02:18:59.281Z,70.50
2018-06-23T02:21:39.627Z,70.50
2018-06-23T02:24:19.621Z,70.70
2018-06-23T02:27:00.012Z,70.90
2018-06-23T02:29:40.675Z,70.80
2018-06-23T02:32:21.439Z,70.80
2018-06-23T02:35:03.960Z,70.70
2018-06-23T02:37:39.234Z,70.60
2018-06-23T02:40:14.091Z,70.60
2018-06-23T02:42:48.835Z,70.10
2018-06-23T02:45:23.832Z,69.90
2018-06-23T02:47:58.500Z,70.00
2018-06-23T02:50:33.783Z,70.10
2018-06-23T02:53:08.543Z,70.10
2018-06-23T02:55:43.154Z,70.10
2018-06-23T02:58:17.728Z,70.10
2018-06-23T03:00:52.290Z,69.90
2018-06-23T03:06:01.670Z,70.00
2018-06-23T03:08:36.952Z,70.00
2018-06-23T03:11:11.211Z,69.90
2018-06-23T03:13:45.755Z,70.00
2018-06-23T03:16:20.429Z,69.90
2018-06-23T03:18:55.036Z,70.00
2018-06-23T03:21:29.641Z,70.40
2018-06-23T03:24:04.419Z,70.60
2018-06-23T03:26:39.257Z,70.50
2018-06-23T03:29:13.978Z,71.20
2018-06-23T03:31:48.601Z,70.70
2018-06-23T03:34:23.310Z,70.70
2018-06-23T03:36:58.320Z,70.90
2018-06-23T03:39:32.650Z,71.10
2018-06-23T03:42:07.556Z,71.20
2018-06-23T03:44:42.132Z,71.70
2018-06-23T03:47:16.784Z,71.80
2018-06-23T03:49:51.427Z,72.20
2018-06-23T03:52:26.140Z,72.00
2018-06-23T03:55:00.950Z,72.10
2018-06-23T03:57:35.609Z,71.90
2018-06-23T04:00:10.441Z,71.80
2018-06-23T04:02:44.623Z,72.00
2018-06-23T04:05:19.465Z,71.90
2018-06-23T04:07:54.253Z,71.90
2018-06-23T04:10:28.876Z,71.10
2018-06-23T04:13:04.624Z,71.50
2018-06-23T04:15:39.276Z,71.10
2018-06-23T04:18:14.266Z,71.40
2018-06-23T04:20:48.728Z,70.80
2018-06-23T04:23:23.290Z,70.60
2018-06-23T04:25:58.332Z,70.60
2018-06-23T04:28:32.615Z,70.60
2018-06-23T04:31:07.788Z,70.70
2018-06-23T04:33:42.144Z,70.60
2018-06-23T04:36:16.636Z,70.20
2018-06-23T04:38:51.153Z,68.60
2018-06-23T04:41:25.755Z,68.50
2018-06-23T04:44:00.257Z,68.70
2018-06-23T04:46:35.019Z,66.70
2018-06-23T04:49:09.615Z,66.90
2018-06-23T04:51:44.358Z,66.30
2018-06-23T04:54:19.123Z,66.60
2018-06-23T04:56:53.922Z,66.30
2018-06-23T04:59:28.610Z,66.30
2018-06-23T05:02:03.206Z,66.10
2018-06-23T05:04:37.734Z,65.50
2018-06-23T05:07:12.464Z,65.10
2018-06-23T05:09:47.604Z,65.10
2018-06-23T05:12:22.215Z,64.50
2018-06-23T05:14:57.643Z,64.20
2018-06-23T05:17:32.308Z,64.30
2018-06-23T05:20:06.892Z,63.50
2018-06-23T05:22:41.564Z,63.80
2018-06-23T05:25:16.392Z,62.10
2018-06-23T05:27:51.064Z,62.50
2018-06-23T05:30:25.735Z,62.20
2018-06-23T05:33:00.391Z,62.00
2018-06-23T05:35:35.624Z,62.70
2018-06-23T05:38:10.699Z,62.00
2018-06-23T05:40:45.691Z,60.30
2018-06-23T05:43:20.041Z,57.40
2018-06-23T05:45:54.909Z,55.20
2018-06-23T05:48:29.666Z,52.60
2018-06-23T05:51:04.538Z,51.80
2018-06-23T05:53:39.207Z,50.60
2018-06-23T05:56:14.163Z,50.00
2018-06-23T05:58:48.670Z,49.00
2018-06-23T06:01:23.925Z,48.70
2018-06-23T06:03:58.050Z,48.00
2018-06-23T06:06:32.652Z,47.60
2018-06-23T06:11:44.061Z,47.00
2018-06-23T06:14:19.144Z,46.10
2018-06-23T06:17:27.811Z,45.30
2018-06-23T06:20:04.435Z,43.70
2018-06-23T06:22:40.935Z,42.60
2018-06-23T06:25:18.133Z,41.70
2018-06-23T06:27:52.351Z,41.30
2018-06-23T06:30:27.286Z,41.80
2018-06-23T06:33:02.349Z,41.20
2018-06-23T06:35:37.415Z,39.70
2018-06-23T06:38:12.307Z,39.70
2018-06-23T06:40:46.968Z,39.80
2018-06-23T06:43:21.347Z,39.20
2018-06-23T06:45:57.170Z,39.20
2018-06-23T06:48:31.831Z,40.40
2018-06-23T06:51:06.355Z,41.80
2018-06-23T06:53:41.111Z,42.80
2018-06-23T06:56:16.572Z,43.80
2018-06-23T06:58:51.349Z,44.70
2018-06-23T07:01:25.974Z,44.80
2018-06-23T07:04:01.129Z,44.10
2018-06-23T07:06:36.503Z,42.80
2018-06-23T07:09:12.681Z,41.60
2018-06-23T07:11:47.675Z,41.00
2018-06-23T07:14:22.566Z,41.40
2018-06-23T07:16:57.194Z,40.10
2018-06-23T07:19:31.933Z,41.20
2018-06-23T07:22:06.726Z,40.30
2018-06-23T07:24:41.339Z,40.50
2018-06-23T07:27:16.621Z,40.00
2018-06-23T07:29:51.734Z,39.10
2018-06-23T07:32:26.710Z,39.30
2018-06-23T07:35:02.270Z,40.00
2018-06-23T07:37:36.728Z,38.80
2018-06-23T07:40:11.568Z,40.40
2018-06-23T07:42:46.028Z,40.90
2018-06-23T07:45:21.037Z,42.80
2018-06-23T07:47:55.322Z,44.30
2018-06-23T07:50:30.757Z,44.60
2018-06-23T07:53:05.750Z,43.30
2018-06-23T07:55:40.418Z,45.10
2018-06-23T07:58:15.171Z,46.00
2018-06-23T08:00:49.830Z,44.80
2018-06-23T08:03:24.926Z,45.30
2018-06-23T08:06:00.012Z,43.60
2018-06-23T08:08:34.333Z,43.50
2018-06-23T08:11:08.965Z,45.20
2018-06-23T08:13:43.659Z,42.80
2018-06-23T08:16:18.594Z,43.00
2018-06-23T08:18:53.270Z,43.00
2018-06-23T08:21:27.779Z,42.00
2018-06-23T08:24:02.672Z,44.70
2018-06-23T08:26:37.102Z,41.90
2018-06-23T08:29:11.541Z,43.10
2018-06-23T08:31:46.225Z,40.70
2018-06-23T08:34:20.856Z,40.80
2018-06-23T08:36:55.752Z,42.40
2018-06-23T08:39:30.397Z,41.80
2018-06-23T08:42:05.299Z,41.30
2018-06-23T08:47:14.820Z,41.60
2018-06-23T08:49:50.210Z,40.30
2018-06-23T08:52:24.518Z,40.60
2018-06-23T08:54:59.255Z,39.60
2018-06-23T08:57:34.061Z,39.60
2018-06-23T09:00:09.087Z,39.60
2018-06-23T09:02:43.385Z,40.00
2018-06-23T09:05:18.468Z,38.80
2018-06-23T09:07:53.120Z,38.10
2018-06-23T09:10:27.454Z,39.10
2018-06-23T09:13:01.973Z,37.50
2018-06-23T09:15:37.077Z,35.60
2018-06-23T09:18:11.476Z,35.90
2018-06-23T09:20:46.084Z,35.10
2018-06-23T09:25:55.493Z,35.40
2018-06-23T09:28:30.036Z,34.40
2018-06-23T09:31:04.832Z,36.10
2018-06-23T09:33:39.279Z,36.50
2018-06-23T09:36:14.294Z,37.90
2018-06-23T09:38:48.500Z,39.00
2018-06-23T09:41:23.290Z,39.20
2018-06-23T09:43:57.757Z,40.60
2018-06-23T09:46:32.648Z,40.20
2018-06-23T09:49:07.450Z,41.70
2018-06-23T09:51:42.136Z,41.20
2018-06-23T09:54:17.104Z,39.40
2018-06-23T09:56:51.639Z,37.70
2018-06-23T09:59:26.491Z,38.20
2018-06-23T10:02:01.414Z,38.90
2018-06-23T10:04:35.636Z,39.00
2018-06-23T10:07:10.707Z,41.50
2018-06-23T10:09:45.263Z,40.60
2018-06-23T10:12:20.035Z,42.20
2018-06-23T10:14:54.365Z,43.40
2018-06-23T10:17:29.276Z,44.10
2018-06-23T10:20:03.977Z,44.70
2018-06-23T10:22:39.050Z,44.10
2018-06-23T10:25:13.333Z,44.60
2018-06-23T10:27:48.738Z,40.60
2018-06-23T10:30:23.643Z,40.70
2018-06-23T10:32:58.737Z,40.20
2018-06-23T10:35:33.451Z,41.20
2018-06-23T10:38:07.948Z,42.40
2018-06-23T10:40:42.530Z,42.70
2018-06-23T10:43:16.796Z,43.00
2018-06-23T10:45:51.954Z,41.70
2018-06-23T10:48:27.760Z,41.60
2018-06-23T10:51:02.512Z,41.70
2018-06-23T10:53:37.526Z,40.40
2018-06-23T10:56:12.114Z,39.60
2018-06-23T10:58:46.357Z,37.90
2018-06-23T11:01:21.053Z,39.00
2018-06-23T11:03:56.230Z,38.70
2018-06-23T11:06:30.964Z,39.60
2018-06-23T11:09:08.636Z,41.10
2018-06-23T11:11:43.450Z,41.40
2018-06-23T11:14:18.642Z,42.50
2018-06-23T11:16:53.519Z,41.50
2018-06-23T11:19:28.122Z,42.40
2018-06-23T11:22:02.511Z,40.00
2018-06-23T11:24:37.741Z,41.00
2018-06-23T11:27:12.056Z,41.20
2018-06-23T11:29:46.917Z,41.70
2018-06-23T11:32:21.661Z,42.00
2018-06-23T11:34:56.524Z,43.60
2018-06-23T11:37:31.010Z,43.80
2018-06-23T11:40:05.937Z,43.80
2018-06-23T11:42:40.282Z,44.60
2018-06-23T11:45:15.105Z,45.90
2018-06-23T11:47:49.750Z,45.00
2018-06-23T11:50:24.672Z,46.90
2018-06-23T11:52:59.942Z,45.50
2018-06-23T11:55:34.917Z,45.10
2018-06-23T11:58:09.071Z,46.50
2018-06-23T12:00:44.212Z,47.50
2018-06-23T12:03:18.360Z,47.80
2018-06-23T12:05:53.427Z,48.50
2018-06-23T12:08:27.535Z,48.50
2018-06-23T12:11:02.381Z,48.40
2018-06-23T12:13:36.993Z,48.30
2018-06-23T12:16:11.888Z,51.00
2018-06-23T12:18:46.754Z,49.00
2018-06-23T12:21:21.655Z,49.60
2018-06-23T12:23:56.364Z,49.40
2018-06-23T12:26:32.996Z,49.40
2018-06-23T12:29:08.252Z,49.90
2018-06-23T12:31:43.231Z,48.60
2018-06-23T12:34:17.942Z,48.70
2018-06-23T12:36:52.693Z,48.70
2018-06-23T12:39:27.310Z,49.50
2018-06-23T12:42:02.179Z,47.50
2018-06-23T12:44:36.631Z,47.50
2018-06-23T12:47:11.556Z,48.60
2018-06-23T12:49:46.090Z,49.70
2018-06-23T12:52:20.832Z,48.60
2018-06-23T12:54:55.470Z,48.20
2018-06-23T12:57:30.028Z,48.60
2018-06-23T13:00:06.377Z,49.00
2018-06-23T13:02:41.212Z,49.40
2018-06-23T13:05:15.808Z,48.00
2018-06-23T13:07:50.805Z,47.60
2018-06-23T13:10:25.046Z,49.50
2018-06-23T13:12:59.847Z,50.30
2018-06-23T13:15:34.013Z,49.10
2018-06-23T13:18:09.412Z,50.10
2018-06-23T13:20:44.360Z,47.60
2018-06-23T13:23:18.968Z,47.90
2018-06-23T13:25:53.578Z,47.00
2018-06-23T13:28:28.191Z,46.00
2018-06-23T13:31:03.127Z,47.50
2018-06-23T13:33:38.299Z,46.00
2018-06-23T13:36:13.384Z,49.70
2018-06-23T13:38:48.683Z,50.60
2018-06-23T13:41:23.101Z,51.40
2018-06-23T13:43:58.026Z,52.50
2018-06-23T13:46:33.621Z,52.60
2018-06-23T13:49:08.288Z,50.30
2018-06-23T13:51:43.732Z,48.90
2018-06-23T13:54:18.981Z,51.40
2018-06-23T13:56:53.600Z,52.90
2018-06-23T13:59:28.343Z,53.50
2018-06-23T14:02:02.942Z,51.80
2018-06-23T14:04:37.805Z,53.90
2018-06-23T14:07:12.178Z,51.10
2018-06-23T14:09:47.435Z,52.30
2018-06-23T14:12:22.039Z,50.80
2018-06-23T14:14:56.423Z,52.40
2018-06-23T14:17:31.094Z,53.50
2018-06-23T14:20:06.177Z,50.00
2018-06-23T14:22:40.435Z,49.90
2018-06-23T14:25:15.841Z,50.40
2018-06-23T14:27:50.906Z,50.80
2018-06-23T14:30:25.932Z,51.00
2018-06-23T14:33:00.267Z,51.00
2018-06-23T14:35:34.977Z,50.60
2018-06-23T14:38:09.475Z,49.80
2018-06-23T14:40:44.453Z,49.10
2018-06-23T14:43:19.046Z,52.00
2018-06-23T14:45:54.098Z,52.50
2018-06-23T14:48:28.517Z,49.90
2018-06-23T14:51:03.378Z,49.80
2018-06-23T14:53:37.998Z,48.80
2018-06-23T14:58:47.760Z,48.20
2018-06-23T15:01:22.362Z,49.30
2018-06-23T15:03:56.880Z,50.60
2018-06-23T15:06:31.503Z,51.20
2018-06-23T15:09:23.675Z,50.20
2018-06-23T15:12:15.369Z,51.20
2018-06-23T15:14:49.898Z,50.40
2018-06-23T15:17:24.524Z,50.90
2018-06-23T15:19:58.946Z,49.80
2018-06-23T15:22:33.572Z,49.60
2018-06-23T15:25:08.274Z,50.40
2018-06-23T15:27:43.224Z,51.30
2018-06-23T15:30:17.673Z,51.80
2018-06-23T15:32:52.483Z,51.70
2018-06-23T15:35:27.516Z,51.90
2018-06-23T15:38:02.293Z,51.90
2018-06-23T15:40:36.722Z,51.20
2018-06-23T15:43:12.049Z,51.60
2018-06-23T15:45:47.022Z,51.10
2018-06-23T15:48:22.080Z,52.80
2018-06-23T15:50:56.596Z,51.40
2018-06-23T15:53:31.362Z,50.30
2018-06-23T15:56:05.905Z,51.10
2018-06-23T15:58:40.580Z,52.60
2018-06-23T16:01:15.649Z,52.80
2018-06-23T16:03:50.346Z,51.00
2018-06-23T16:06:24.936Z,51.80
2018-06-23T16:11:34.199Z,51.20
2018-06-23T16:14:08.745Z,51.60
2018-06-23T16:16:43.585Z,53.00
2018-06-23T16:19:17.894Z,52.70
2018-06-23T16:21:52.521Z,52.30
2018-06-23T16:24:27.429Z,52.80
2018-06-23T16:27:02.483Z,52.30
2018-06-23T16:29:37.961Z,51.30
2018-06-23T16:32:12.322Z,50.90
2018-06-23T16:34:47.317Z,50.80
2018-06-23T16:37:21.788Z,50.90
2018-06-23T16:39:56.447Z,52.30
2018-06-23T16:42:30.937Z,51.80
2018-06-23T16:45:06.024Z,52.60
2018-06-23T16:47:40.346Z,52.40
2018-06-23T16:50:15.208Z,53.00
2018-06-23T16:52:50.055Z,52.80
2018-06-23T16:55:24.865Z,52.10
2018-06-23T16:57:59.460Z,52.30
2018-06-23T17:00:34.149Z,52.60
2018-06-23T17:03:08.937Z,52.20
2018-06-23T17:05:43.757Z,51.80
2018-06-23T17:08:18.134Z,51.60
2018-06-23T17:10:53.234Z,51.80
2018-06-23T17:13:27.741Z,52.70
2018-06-23T17:16:02.354Z,52.70
2018-06-23T17:18:37.161Z,53.20
2018-06-23T17:21:11.817Z,51.70
2018-06-23T17:23:46.498Z,52.50
2018-06-23T17:26:21.384Z,52.70
2018-06-23T17:28:56.042Z,55.90
2018-06-23T17:31:31.682Z,53.10
2018-06-23T17:34:06.377Z,51.80
2018-06-23T17:36:40.996Z,52.30
2018-06-23T17:39:15.644Z,51.80
2018-06-23T17:41:50.776Z,51.30
2018-06-23T17:44:25.795Z,51.70
2018-06-23T17:47:00.494Z,52.30
2018-06-23T17:49:35.443Z,51.80
2018-06-23T17:52:09.986Z,52.30
2018-06-23T17:54:44.339Z,51.90
2018-06-23T17:57:19.422Z,52.40
2018-06-23T17:59:53.986Z,52.90
2018-06-23T18:02:28.648Z,53.00
2018-06-23T18:05:03.310Z,54.40
2018-06-23T18:07:38.143Z,54.80
2018-06-23T18:10:12.663Z,55.00
2018-06-23T18:12:47.416Z,53.30
2018-06-23T18:15:21.963Z,52.40
2018-06-23T18:17:56.644Z,53.00
2018-06-23T18:20:31.282Z,54.00
2018-06-23T18:23:06.011Z,55.00
2018-06-23T18:25:40.704Z,53.30
2018-06-23T18:28:15.395Z,53.90
2018-06-23T18:30:50.133Z,54.00
2018-06-23T18:33:24.860Z,54.30
2018-06-23T18:35:59.511Z,54.80
2018-06-23T18:38:34.306Z,54.90
2018-06-23T18:41:08.976Z,54.80
2018-06-23T18:43:43.961Z,55.20
2018-06-23T18:46:18.282Z,54.90
2018-06-23T18:48:52.935Z,54.60
2018-06-23T18:54:02.196Z,54.90
2018-06-23T18:56:37.094Z,55.30
2018-06-23T18:59:11.822Z,55.90
2018-06-23T19:01:47.359Z,55.90
2018-06-23T19:04:22.231Z,55.30
2018-06-23T19:06:57.282Z,55.70
2018-06-23T19:09:31.610Z,55.60
2018-06-23T19:12:06.132Z,56.80
2018-06-23T19:14:40.892Z,56.50
2018-06-23T19:17:15.574Z,56.40
2018-06-23T19:19:50.205Z,56.80
2018-06-23T19:22:25.380Z,55.90
2018-06-23T19:25:00.549Z,55.90
2018-06-23T19:27:35.794Z,56.20
2018-06-23T19:30:10.940Z,56.60
2018-06-23T19:32:45.939Z,56.40
2018-06-23T19:35:20.145Z,56.40
2018-06-23T19:37:55.126Z,56.20
2018-06-23T19:40:29.290Z,56.30
2018-06-23T19:43:04.591Z,55.90
2018-06-23T19:45:40.397Z,55.90
2018-06-23T19:48:16.744Z,56.40
2018-06-23T19:50:51.715Z,56.20
2018-06-23T19:53:26.597Z,56.00
2018-06-23T19:56:01.319Z,55.10
2018-06-23T19:58:35.752Z,55.60
2018-06-23T20:01:10.490Z,55.00
2018-06-23T20:03:45.679Z,55.60
2018-06-23T20:06:20.423Z,55.10
2018-06-23T20:08:55.337Z,54.90
2018-06-23T20:11:29.702Z,56.90
2018-06-23T20:14:04.889Z,56.70
2018-06-23T20:16:40.127Z,56.60
2018-06-23T20:19:15.506Z,56.70
2018-06-23T20:21:50.289Z,57.10
2018-06-23T20:24:25.696Z,57.30
2018-06-23T20:27:01.047Z,57.70
2018-06-23T20:29:35.413Z,58.30
2018-06-23T20:32:10.032Z,58.20
2018-06-23T20:34:45.171Z,59.00
2018-06-23T20:37:19.462Z,58.60
2018-06-23T20:39:54.221Z,59.00
2018-06-23T20:42:28.835Z,57.80
2018-06-23T20:45:03.449Z,57.20
2018-06-23T20:47:37.970Z,58.70
2018-06-23T20:50:12.820Z,58.90
2018-06-23T20:52:47.219Z,59.10
2018-06-23T20:55:22.177Z,58.50
2018-06-23T20:57:56.787Z,59.00
2018-06-23T21:00:31.647Z,59.00
2018-06-23T21:03:05.888Z,59.50
2018-06-23T21:05:40.664Z,59.80
2018-06-23T21:08:15.239Z,60.30
2018-06-23T21:10:50.060Z,60.10
2018-06-23T21:13:24.659Z,60.40
2018-06-23T21:15:59.465Z,60.50
2018-06-23T21:18:33.887Z,60.40
2018-06-23T21:21:08.610Z,60.60
2018-06-23T21:23:43.167Z,60.50
2018-06-23T21:26:18.948Z,60.40
2018-06-23T21:28:53.720Z,60.40
2018-06-23T21:31:28.642Z,60.90
2018-06-23T21:34:03.185Z,60.60
2018-06-23T21:36:37.914Z,60.40
2018-06-23T21:39:12.574Z,60.60
2018-06-23T21:41:46.995Z,60.20
2018-06-23T21:44:21.939Z,60.30
2018-06-23T21:46:56.490Z,60.20
2018-06-23T21:49:31.190Z,60.00
2018-06-23T21:52:05.617Z,60.10
2018-06-23T21:54:40.016Z,59.30
2018-06-23T21:57:14.580Z,60.10
2018-06-23T21:59:50.090Z,59.90
2018-06-23T22:02:25.552Z,59.50
2018-06-23T22:05:00.183Z,59.60
2018-06-23T22:07:34.767Z,59.80
2018-06-23T22:10:09.450Z,60.20
2018-06-23T22:12:44.475Z,60.70
2018-06-23T22:15:18.693Z,59.90
2018-06-23T22:17:53.744Z,60.70
2018-06-23T22:23:04.084Z,61.20
2018-06-23T22:25:39.254Z,61.00
2018-06-23T22:28:14.048Z,62.10
2018-06-23T22:30:48.795Z,61.80
2018-06-23T22:33:23.778Z,62.50
2018-06-23T22:35:58.164Z,62.30
2018-06-23T22:38:32.458Z,62.70
2018-06-23T22:41:07.282Z,62.40
2018-06-23T22:43:42.176Z,62.40
2018-06-23T22:46:16.496Z,62.30
2018-06-23T22:48:51.155Z,62.40
2018-06-23T22:51:25.785Z,62.50
2018-06-23T22:54:01.525Z,62.90
2018-06-23T22:56:36.365Z,62.50
2018-06-23T22:59:10.751Z,62.00
2018-06-23T23:01:45.332Z,62.10
2018-06-23T23:04:19.999Z,62.20
2018-06-23T23:06:54.681Z,62.10
2018-06-23T23:09:29.947Z,62.70
2018-06-23T23:12:04.367Z,62.90
2018-06-23T23:14:38.960Z,62.80
2018-06-23T23:17:13.433Z,62.70
2018-06-23T23:19:48.133Z,63.20
2018-06-23T23:22:23.004Z,63.20
2018-06-23T23:24:57.979Z,63.30
2018-06-23T23:27:32.396Z,64.50
2018-06-23T23:30:07.773Z,63.60
2018-06-23T23:32:42.708Z,63.50
2018-06-23T23:35:17.317Z,64.50
2018-06-23T23:37:51.990Z,64.70
2018-06-23T23:40:26.660Z,65.60
2018-06-23T23:43:01.749Z,64.90
2018-06-23T23:45:36.230Z,65.50
2018-06-23T23:48:10.534Z,67.50
2018-06-23T23:50:45.186Z,68.00
2018-06-23T23:53:19.813Z,68.40
2018-06-23T23:55:54.728Z,68.60
2018-06-23T23:58:29.218Z,70.40
